This is the latest recevied weather packets stored in our database for station/object KC1OEK-13. If no packets are shown the sender has not sent any weather packets the latest 10 day(s).
| Time | Temp. | Humidity | Pressure | Rain* | Wind** | Luminosity | Snow |
|---|---|---|---|---|---|---|---|
| 1787518253 | 26.11° C | 75% | 1011.1 hPa | 0 mm | - | 249 W/m² | - |
| 1787517949 | 26.67° C | 72% | 1010.8 hPa | 0 mm | - | 418 W/m² | - |
| 1787517644 | 26.67° C | 73% | 1010.7 hPa | 0 mm | - | 444 W/m² | - |
| 1787517340 | 26.67° C | 72% | 1010.8 hPa | 0 mm | - | 166 W/m² | - |
| 1787517036 | 26.67° C | 73% | 1010.8 hPa | 0 mm | - | 149 W/m² | - |
| 1787516730 | 26.67° C | 72% | 1010.7 hPa | 0 mm | - | 154 W/m² | - |
| 1787516426 | 26.11° C | 76% | 1010.9 hPa | 0 mm | - | 252 W/m² | - |
| 1787516125 | 26.11° C | 75% | 1010.8 hPa | 0 mm | - | 132 W/m² | - |
| 1787515820 | 26.67° C | 73% | 1010.7 hPa | 0 mm | - | 99 W/m² | - |
| 1787515517 | 26.67° C | 73% | 1011 hPa | 0 mm | - | 213 W/m² | - |
| 1787515217 | 27.22° C | 70% | 1010.8 hPa | 0 mm | - | 522 W/m² | - |
| 1787514912 | 27.22° C | 73% | 1010.6 hPa | 0 mm | - | 501 W/m² | - |
| 1787514609 | 27.78° C | 71% | 1010.7 hPa | 0 mm | - | 514 W/m² | - |
| 1787514304 | 26.67° C | 75% | 1010.8 hPa | 0 mm | - | 476 W/m² | - |
| 1787514003 | 26.11° C | 77% | 1010.9 hPa | 0 mm | - | 301 W/m² | - |
| 1787513699 | 25.56° C | 76% | 1010.8 hPa | 0 mm | - | 129 W/m² | - |
| 1787513394 | 26.67° C | 74% | 1010.7 hPa | 0 mm | - | 110 W/m² | - |
| 1787513090 | 26.11° C | 72% | 1010.8 hPa | 0 mm | - | 245 W/m² | - |
| 1787512786 | 26.67° C | 74% | 1010.9 hPa | 0 mm | - | 193 W/m² | - |
| 1787512477 | 27.22° C | 71% | 1010.8 hPa | 0 mm | - | 204 W/m² | - |
| 1787512171 | 27.22° C | 70% | 1010.8 hPa | 0 mm | - | 656 W/m² | - |
| 1787511867 | 27.78° C | 72% | 1011 hPa | 0 mm | - | 667 W/m² | - |
| 1787511561 | 27.22° C | 73% | 1010.8 hPa | 0 mm | - | 651 W/m² | - |
| 1787511260 | 26.67° C | 72% | 1010.9 hPa | 0 mm | - | 775 W/m² | - |
| 1787510960 | 27.22° C | 72% | 1010.9 hPa | 0 mm | - | 440 W/m² | - |
* Rain latest hour (hover to see other rain measurements)
** Current wind speed in m/s (hover to see current wind gust speed)